sensor_id;sensor_type;location;lat;lon;timestamp;P1;durP1;ratioP1;P2;durP2;ratioP2
7571;SDS011;3827;49.928;8.548;2024-03-23T00:52:46;13.30;;;12.10;;
7571;SDS011;3827;49.928;8.548;2024-03-23T00:55:12;13.70;;;12.48;;
7571;SDS011;3827;49.928;8.548;2024-03-23T00:57:38;14.23;;;12.93;;
7571;SDS011;3827;49.928;8.548;2024-03-23T01:00:04;13.10;;;11.83;;
7571;SDS011;3827;49.928;8.548;2024-03-23T01:02:31;14.85;;;13.38;;
7571;SDS011;3827;49.928;8.548;2024-03-23T01:04:57;15.07;;;13.55;;
7571;SDS011;3827;49.928;8.548;2024-03-23T01:07:22;15.25;;;13.57;;
7571;SDS011;3827;49.928;8.548;2024-03-23T01:09:48;14.73;;;13.10;;
7571;SDS011;3827;49.928;8.548;2024-03-23T01:12:14;13.40;;;12.10;;
7571;SDS011;3827;49.928;8.548;2024-03-23T01:14:39;13.98;;;12.68;;
7571;SDS011;3827;49.928;8.548;2024-03-23T01:17:05;14.30;;;12.93;;
7571;SDS011;3827;49.928;8.548;2024-03-23T01:19:30;13.90;;;12.57;;
7571;SDS011;3827;49.928;8.548;2024-03-23T01:21:56;14.77;;;13.38;;
7571;SDS011;3827;49.928;8.548;2024-03-23T01:24:21;14.65;;;13.13;;
7571;SDS011;3827;49.928;8.548;2024-03-23T01:26:47;12.90;;;11.52;;
7571;SDS011;3827;49.928;8.548;2024-03-23T01:29:12;12.77;;;11.57;;
7571;SDS011;3827;49.928;8.548;2024-03-23T01:31:38;13.18;;;11.93;;
7571;SDS011;3827;49.928;8.548;2024-03-23T01:34:03;13.07;;;11.68;;
7571;SDS011;3827;49.928;8.548;2024-03-23T01:36:29;13.38;;;11.80;;
7571;SDS011;3827;49.928;8.548;2024-03-23T01:38:54;12.98;;;11.40;;
7571;SDS011;3827;49.928;8.548;2024-03-23T01:41:20;12.93;;;11.27;;
7571;SDS011;3827;49.928;8.548;2024-03-23T01:43:46;11.77;;;10.68;;
7571;SDS011;3827;49.928;8.548;2024-03-23T01:46:12;12.77;;;11.47;;
7571;SDS011;3827;49.928;8.548;2024-03-23T01:48:38;12.23;;;10.63;;
7571;SDS011;3827;49.928;8.548;2024-03-23T01:51:04;12.33;;;11.13;;
7571;SDS011;3827;49.928;8.548;2024-03-23T01:53:29;13.33;;;11.93;;
7571;SDS011;3827;49.928;8.548;2024-03-23T01:55:55;12.95;;;11.65;;
7571;SDS011;3827;49.928;8.548;2024-03-23T01:58:22;11.98;;;10.77;;
7571;SDS011;3827;49.928;8.548;2024-03-23T02:00:47;11.88;;;10.70;;
7571;SDS011;3827;49.928;8.548;2024-03-23T02:03:34;13.27;;;11.87;;
7571;SDS011;3827;49.928;8.548;2024-03-23T02:05:59;11.80;;;10.70;;
7571;SDS011;3827;49.928;8.548;2024-03-23T02:08:24;11.43;;;10.33;;
7571;SDS011;3827;49.928;8.548;2024-03-23T02:10:50;12.05;;;11.05;;
7571;SDS011;3827;49.928;8.548;2024-03-23T02:13:18;12.23;;;11.05;;
7571;SDS011;3827;49.928;8.548;2024-03-23T02:15:44;13.57;;;12.27;;
7571;SDS011;3827;49.928;8.548;2024-03-23T02:18:10;11.80;;;10.70;;
7571;SDS011;3827;49.928;8.548;2024-03-23T02:20:36;14.20;;;12.65;;
7571;SDS011;3827;49.928;8.548;2024-03-23T02:23:02;14.65;;;12.60;;
7571;SDS011;3827;49.928;8.548;2024-03-23T02:25:30;13.88;;;12.52;;
7571;SDS011;3827;49.928;8.548;2024-03-23T02:27:57;13.52;;;12.32;;
7571;SDS011;3827;49.928;8.548;2024-03-23T02:30:23;13.57;;;12.38;;
7571;SDS011;3827;49.928;8.548;2024-03-23T02:32:50;13.70;;;12.40;;
7571;SDS011;3827;49.928;8.548;2024-03-23T02:35:15;13.73;;;12.45;;
7571;SDS011;3827;49.928;8.548;2024-03-23T02:37:41;14.88;;;13.43;;
7571;SDS011;3827;49.928;8.548;2024-03-23T02:40:07;15.80;;;14.10;;
7571;SDS011;3827;49.928;8.548;2024-03-23T02:42:32;15.57;;;14.07;;
7571;SDS011;3827;49.928;8.548;2024-03-23T02:44:58;14.57;;;13.07;;
7571;SDS011;3827;49.928;8.548;2024-03-23T02:47:24;15.07;;;13.57;;
7571;SDS011;3827;49.928;8.548;2024-03-23T02:49:50;15.50;;;14.00;;
7571;SDS011;3827;49.928;8.548;2024-03-23T02:52:15;15.87;;;14.20;;
7571;SDS011;3827;49.928;8.548;2024-03-23T02:54:41;15.90;;;14.40;;
7571;SDS011;3827;49.928;8.548;2024-03-23T02:57:09;15.70;;;14.20;;
7571;SDS011;3827;49.928;8.548;2024-03-23T02:59:35;16.07;;;14.47;;
7571;SDS011;3827;49.928;8.548;2024-03-23T03:02:01;15.33;;;13.93;;
7571;SDS011;3827;49.928;8.548;2024-03-23T03:04:26;16.25;;;14.70;;
7571;SDS011;3827;49.928;8.548;2024-03-23T03:06:52;15.00;;;13.60;;
7571;SDS011;3827;49.928;8.548;2024-03-23T03:09:17;16.27;;;14.77;;
7571;SDS011;3827;49.928;8.548;2024-03-23T03:11:43;16.07;;;14.47;;
7571;SDS011;3827;49.928;8.548;2024-03-23T03:14:08;16.87;;;15.17;;
7571;SDS011;3827;49.928;8.548;2024-03-23T03:16:34;16.23;;;14.73;;
7571;SDS011;3827;49.928;8.548;2024-03-23T03:19:00;16.77;;;15.03;;
7571;SDS011;3827;49.928;8.548;2024-03-23T03:21:26;16.27;;;14.65;;
7571;SDS011;3827;49.928;8.548;2024-03-23T03:23:52;15.98;;;14.48;;
7571;SDS011;3827;49.928;8.548;2024-03-23T03:26:17;17.30;;;15.63;;
7571;SDS011;3827;49.928;8.548;2024-03-23T03:28:43;15.98;;;14.48;;
7571;SDS011;3827;49.928;8.548;2024-03-23T03:31:14;16.47;;;14.97;;
7571;SDS011;3827;49.928;8.548;2024-03-23T03:33:40;16.90;;;15.23;;
7571;SDS011;3827;49.928;8.548;2024-03-23T03:36:05;17.63;;;15.90;;
7571;SDS011;3827;49.928;8.548;2024-03-23T03:38:31;18.05;;;15.88;;
7571;SDS011;3827;49.928;8.548;2024-03-23T03:40:57;16.33;;;14.82;;
7571;SDS011;3827;49.928;8.548;2024-03-23T03:43:23;16.27;;;14.57;;
7571;SDS011;3827;49.928;8.548;2024-03-23T03:45:56;17.57;;;15.87;;
7571;SDS011;3827;49.928;8.548;2024-03-23T03:48:22;17.58;;;15.75;;
7571;SDS011;3827;49.928;8.548;2024-03-23T03:50:48;18.15;;;16.35;;
7571;SDS011;3827;49.928;8.548;2024-03-23T03:53:14;17.17;;;15.48;;
7571;SDS011;3827;49.928;8.548;2024-03-23T03:55:39;16.87;;;15.17;;
7571;SDS011;3827;49.928;8.548;2024-03-23T03:58:05;16.67;;;14.98;;
7571;SDS011;3827;49.928;8.548;2024-03-23T04:00:31;17.00;;;15.30;;
7571;SDS011;3827;49.928;8.548;2024-03-23T04:02:56;16.95;;;15.15;;
7571;SDS011;3827;49.928;8.548;2024-03-23T04:05:22;17.17;;;15.35;;
7571;SDS011;3827;49.928;8.548;2024-03-23T04:07:48;16.80;;;15.20;;
7571;SDS011;3827;49.928;8.548;2024-03-23T04:10:14;17.70;;;15.90;;
7571;SDS011;3827;49.928;8.548;2024-03-23T04:12:40;17.25;;;15.52;;
7571;SDS011;3827;49.928;8.548;2024-03-23T04:15:06;17.98;;;16.08;;
7571;SDS011;3827;49.928;8.548;2024-03-23T04:17:33;17.45;;;15.63;;
7571;SDS011;3827;49.928;8.548;2024-03-23T04:19:59;18.70;;;16.80;;
7571;SDS011;3827;49.928;8.548;2024-03-23T04:22:26;20.33;;;17.73;;
7571;SDS011;3827;49.928;8.548;2024-03-23T04:24:55;19.03;;;17.03;;
7571;SDS011;3827;49.928;8.548;2024-03-23T04:27:22;20.83;;;17.80;;
7571;SDS011;3827;49.928;8.548;2024-03-23T04:29:50;18.55;;;16.25;;
7571;SDS011;3827;49.928;8.548;2024-03-23T04:32:17;17.13;;;15.07;;
7571;SDS011;3827;49.928;8.548;2024-03-23T04:34:43;14.07;;;11.80;;
7571;SDS011;3827;49.928;8.548;2024-03-23T04:37:10;13.90;;;11.63;;
7571;SDS011;3827;49.928;8.548;2024-03-23T04:39:36;9.17;;;7.80;;
7571;SDS011;3827;49.928;8.548;2024-03-23T04:42:02;6.22;;;5.63;;
7571;SDS011;3827;49.928;8.548;2024-03-23T04:44:28;7.10;;;5.70;;
7571;SDS011;3827;49.928;8.548;2024-03-23T04:46:54;5.65;;;4.75;;
7571;SDS011;3827;49.928;8.548;2024-03-23T04:49:20;3.33;;;3.00;;
7571;SDS011;3827;49.928;8.548;2024-03-23T04:51:45;4.67;;;3.27;;
7571;SDS011;3827;49.928;8.548;2024-03-23T04:54:14;2.90;;;2.60;;
7571;SDS011;3827;49.928;8.548;2024-03-23T04:56:40;2.22;;;2.03;;
7571;SDS011;3827;49.928;8.548;2024-03-23T04:59:05;2.25;;;1.80;;
7571;SDS011;3827;49.928;8.548;2024-03-23T05:01:31;1.43;;;1.33;;
7571;SDS011;3827;49.928;8.548;2024-03-23T05:03:57;1.45;;;1.35;;
7571;SDS011;3827;49.928;8.548;2024-03-23T05:06:23;1.75;;;1.25;;
7571;SDS011;3827;49.928;8.548;2024-03-23T05:08:52;1.90;;;1.40;;
7571;SDS011;3827;49.928;8.548;2024-03-23T05:11:18;1.20;;;1.00;;
7571;SDS011;3827;49.928;8.548;2024-03-23T05:13:43;1.20;;;1.10;;
7571;SDS011;3827;49.928;8.548;2024-03-23T05:16:09;1.65;;;1.13;;
7571;SDS011;3827;49.928;8.548;2024-03-23T05:18:35;1.95;;;1.30;;
7571;SDS011;3827;49.928;8.548;2024-03-23T05:21:00;2.13;;;1.52;;
7571;SDS011;3827;49.928;8.548;2024-03-23T05:23:27;1.57;;;1.47;;
7571;SDS011;3827;49.928;8.548;2024-03-23T05:25:53;1.65;;;1.55;;
7571;SDS011;3827;49.928;8.548;2024-03-23T05:28:20;1.60;;;1.50;;
7571;SDS011;3827;49.928;8.548;2024-03-23T05:30:52;1.63;;;1.48;;
7571;SDS011;3827;49.928;8.548;2024-03-23T05:33:19;1.92;;;1.77;;
7571;SDS011;3827;49.928;8.548;2024-03-23T05:35:45;1.67;;;1.58;;
7571;SDS011;3827;49.928;8.548;2024-03-23T05:38:10;1.95;;;1.52;;
7571;SDS011;3827;49.928;8.548;2024-03-23T05:40:36;1.70;;;1.60;;
7571;SDS011;3827;49.928;8.548;2024-03-23T05:43:05;1.65;;;1.55;;
7571;SDS011;3827;49.928;8.548;2024-03-23T05:45:34;1.80;;;1.70;;
7571;SDS011;3827;49.928;8.548;2024-03-23T05:47:59;2.28;;;2.00;;
7571;SDS011;3827;49.928;8.548;2024-03-23T05:50:25;2.00;;;1.90;;
7571;SDS011;3827;49.928;8.548;2024-03-23T05:52:51;2.50;;;2.30;;
7571;SDS011;3827;49.928;8.548;2024-03-23T05:55:16;2.30;;;2.20;;
7571;SDS011;3827;49.928;8.548;2024-03-23T05:57:42;2.53;;;2.40;;
7571;SDS011;3827;49.928;8.548;2024-03-23T06:00:07;2.70;;;2.50;;
7571;SDS011;3827;49.928;8.548;2024-03-23T06:02:41;3.05;;;2.85;;
7571;SDS011;3827;49.928;8.548;2024-03-23T06:05:11;2.90;;;2.70;;
7571;SDS011;3827;49.928;8.548;2024-03-23T06:07:37;3.05;;;2.70;;
7571;SDS011;3827;49.928;8.548;2024-03-23T06:10:03;2.50;;;2.30;;
7571;SDS011;3827;49.928;8.548;2024-03-23T06:12:29;2.70;;;2.50;;
7571;SDS011;3827;49.928;8.548;2024-03-23T06:14:54;2.47;;;2.30;;
7571;SDS011;3827;49.928;8.548;2024-03-23T06:17:20;1.88;;;1.77;;
7571;SDS011;3827;49.928;8.548;2024-03-23T06:19:46;2.13;;;1.92;;
7571;SDS011;3827;49.928;8.548;2024-03-23T06:22:11;1.70;;;1.60;;
7571;SDS011;3827;49.928;8.548;2024-03-23T06:24:37;1.50;;;1.40;;
7571;SDS011;3827;49.928;8.548;2024-03-23T06:27:02;1.60;;;1.50;;
7571;SDS011;3827;49.928;8.548;2024-03-23T06:29:28;1.23;;;1.20;;
7571;SDS011;3827;49.928;8.548;2024-03-23T06:31:54;1.63;;;1.30;;
7571;SDS011;3827;49.928;8.548;2024-03-23T06:34:20;0.90;;;0.90;;
7571;SDS011;3827;49.928;8.548;2024-03-23T06:36:46;0.80;;;0.80;;
7571;SDS011;3827;49.928;8.548;2024-03-23T06:39:12;1.00;;;1.00;;
7571;SDS011;3827;49.928;8.548;2024-03-23T06:41:40;0.80;;;0.80;;
7571;SDS011;3827;49.928;8.548;2024-03-23T06:44:16;0.70;;;0.70;;
7571;SDS011;3827;49.928;8.548;2024-03-23T06:46:42;0.80;;;0.80;;
7571;SDS011;3827;49.928;8.548;2024-03-23T06:49:08;0.60;;;0.60;;
7571;SDS011;3827;49.928;8.548;2024-03-23T06:51:33;0.70;;;0.70;;
7571;SDS011;3827;49.928;8.548;2024-03-23T06:53:59;0.60;;;0.60;;
7571;SDS011;3827;49.928;8.548;2024-03-23T06:56:24;0.65;;;0.60;;
7571;SDS011;3827;49.928;8.548;2024-03-23T06:58:50;0.60;;;0.60;;
7571;SDS011;3827;49.928;8.548;2024-03-23T07:01:15;0.60;;;0.60;;
7571;SDS011;3827;49.928;8.548;2024-03-23T07:03:41;1.43;;;0.70;;
7571;SDS011;3827;49.928;8.548;2024-03-23T07:06:06;0.87;;;0.67;;
7571;SDS011;3827;49.928;8.548;2024-03-23T07:08:35;1.23;;;0.70;;
7571;SDS011;3827;49.928;8.548;2024-03-23T07:11:01;1.33;;;0.80;;
7571;SDS011;3827;49.928;8.548;2024-03-23T07:13:27;0.95;;;0.65;;
7571;SDS011;3827;49.928;8.548;2024-03-23T07:15:53;1.02;;;0.70;;
7571;SDS011;3827;49.928;8.548;2024-03-23T07:18:21;1.57;;;0.60;;
7571;SDS011;3827;49.928;8.548;2024-03-23T07:20:53;1.23;;;0.80;;
7571;SDS011;3827;49.928;8.548;2024-03-23T07:23:22;2.17;;;1.00;;
7571;SDS011;3827;49.928;8.548;2024-03-23T07:28:27;4.33;;;1.43;;
7571;SDS011;3827;49.928;8.548;2024-03-23T07:31:12;3.42;;;1.50;;
7571;SDS011;3827;49.928;8.548;2024-03-23T07:33:48;3.30;;;1.35;;
7571;SDS011;3827;49.928;8.548;2024-03-23T07:36:14;2.13;;;1.25;;
7571;SDS011;3827;49.928;8.548;2024-03-23T07:38:42;1.92;;;1.00;;
7571;SDS011;3827;49.928;8.548;2024-03-23T07:41:13;2.20;;;1.03;;
7571;SDS011;3827;49.928;8.548;2024-03-23T07:43:44;2.63;;;1.10;;
7571;SDS011;3827;49.928;8.548;2024-03-23T07:46:10;1.58;;;0.90;;
7571;SDS011;3827;49.928;8.548;2024-03-23T07:48:37;2.75;;;1.00;;
7571;SDS011;3827;49.928;8.548;2024-03-23T07:53:31;4.30;;;1.75;;
7571;SDS011;3827;49.928;8.548;2024-03-23T07:55:57;4.10;;;2.20;;
7571;SDS011;3827;49.928;8.548;2024-03-23T07:58:25;2.22;;;1.80;;
7571;SDS011;3827;49.928;8.548;2024-03-23T08:00:52;3.50;;;2.30;;
7571;SDS011;3827;49.928;8.548;2024-03-23T08:03:18;5.22;;;2.65;;
7571;SDS011;3827;49.928;8.548;2024-03-23T08:05:44;3.10;;;2.63;;
7571;SDS011;3827;49.928;8.548;2024-03-23T08:08:09;4.60;;;2.73;;
7571;SDS011;3827;49.928;8.548;2024-03-23T08:10:36;5.47;;;2.83;;
7571;SDS011;3827;49.928;8.548;2024-03-23T08:13:02;3.90;;;2.40;;
7571;SDS011;3827;49.928;8.548;2024-03-23T08:15:29;3.03;;;2.30;;
7571;SDS011;3827;49.928;8.548;2024-03-23T08:17:57;3.83;;;2.57;;
7571;SDS011;3827;49.928;8.548;2024-03-23T08:20:24;3.40;;;2.42;;
7571;SDS011;3827;49.928;8.548;2024-03-23T08:22:50;4.20;;;2.90;;
7571;SDS011;3827;49.928;8.548;2024-03-23T08:25:15;3.43;;;2.90;;
7571;SDS011;3827;49.928;8.548;2024-03-23T08:27:41;4.17;;;2.80;;
7571;SDS011;3827;49.928;8.548;2024-03-23T08:30:09;3.87;;;2.73;;
7571;SDS011;3827;49.928;8.548;2024-03-23T08:32:35;4.47;;;3.00;;
7571;SDS011;3827;49.928;8.548;2024-03-23T08:35:01;3.20;;;2.55;;
7571;SDS011;3827;49.928;8.548;2024-03-23T08:37:27;4.33;;;3.13;;
7571;SDS011;3827;49.928;8.548;2024-03-23T08:39:53;4.60;;;2.90;;
7571;SDS011;3827;49.928;8.548;2024-03-23T08:42:18;4.53;;;2.70;;
7571;SDS011;3827;49.928;8.548;2024-03-23T08:44:44;3.63;;;2.70;;
7571;SDS011;3827;49.928;8.548;2024-03-23T08:47:12;5.87;;;3.10;;
7571;SDS011;3827;49.928;8.548;2024-03-23T08:49:38;3.63;;;2.73;;
7571;SDS011;3827;49.928;8.548;2024-03-23T08:52:03;4.57;;;2.67;;
7571;SDS011;3827;49.928;8.548;2024-03-23T08:54:29;5.28;;;2.75;;
7571;SDS011;3827;49.928;8.548;2024-03-23T08:56:56;5.03;;;2.60;;
7571;SDS011;3827;49.928;8.548;2024-03-23T08:59:21;5.22;;;2.58;;
7571;SDS011;3827;49.928;8.548;2024-03-23T09:01:50;5.68;;;2.60;;
7571;SDS011;3827;49.928;8.548;2024-03-23T09:04:16;5.93;;;2.90;;
7571;SDS011;3827;49.928;8.548;2024-03-23T09:06:44;8.17;;;3.50;;
7571;SDS011;3827;49.928;8.548;2024-03-23T09:09:10;6.65;;;2.88;;
7571;SDS011;3827;49.928;8.548;2024-03-23T09:11:36;5.93;;;2.93;;
7571;SDS011;3827;49.928;8.548;2024-03-23T09:14:02;7.20;;;3.63;;
7571;SDS011;3827;49.928;8.548;2024-03-23T09:16:31;7.38;;;3.50;;
7571;SDS011;3827;49.928;8.548;2024-03-23T09:18:57;5.83;;;3.20;;
7571;SDS011;3827;49.928;8.548;2024-03-23T09:21:22;5.83;;;3.10;;
7571;SDS011;3827;49.928;8.548;2024-03-23T09:23:48;7.03;;;3.63;;
7571;SDS011;3827;49.928;8.548;2024-03-23T09:26:14;4.50;;;3.07;;
7571;SDS011;3827;49.928;8.548;2024-03-23T09:28:39;6.25;;;3.90;;
7571;SDS011;3827;49.928;8.548;2024-03-23T09:31:05;5.95;;;3.45;;
7571;SDS011;3827;49.928;8.548;2024-03-23T09:33:32;7.68;;;3.50;;
7571;SDS011;3827;49.928;8.548;2024-03-23T09:36:04;3.22;;;2.72;;
7571;SDS011;3827;49.928;8.548;2024-03-23T09:38:30;4.95;;;2.50;;
7571;SDS011;3827;49.928;8.548;2024-03-23T09:40:56;5.80;;;2.70;;
7571;SDS011;3827;49.928;8.548;2024-03-23T09:43:22;5.20;;;3.10;;
7571;SDS011;3827;49.928;8.548;2024-03-23T09:45:48;5.83;;;2.50;;
7571;SDS011;3827;49.928;8.548;2024-03-23T09:48:14;4.60;;;2.33;;
7571;SDS011;3827;49.928;8.548;2024-03-23T09:50:41;5.43;;;2.13;;
7571;SDS011;3827;49.928;8.548;2024-03-23T09:53:08;6.40;;;2.42;;
7571;SDS011;3827;49.928;8.548;2024-03-23T09:55:36;5.95;;;2.38;;
7571;SDS011;3827;49.928;8.548;2024-03-23T09:58:02;5.60;;;2.38;;
7571;SDS011;3827;49.928;8.548;2024-03-23T10:00:30;5.00;;;2.20;;
7571;SDS011;3827;49.928;8.548;2024-03-23T10:02:59;4.93;;;2.20;;
7571;SDS011;3827;49.928;8.548;2024-03-23T10:05:26;4.65;;;2.10;;
7571;SDS011;3827;49.928;8.548;2024-03-23T10:10:39;4.78;;;2.10;;
7571;SDS011;3827;49.928;8.548;2024-03-23T10:13:05;3.55;;;1.88;;
7571;SDS011;3827;49.928;8.548;2024-03-23T10:15:30;3.65;;;2.00;;
7571;SDS011;3827;49.928;8.548;2024-03-23T10:18:04;3.85;;;2.10;;
7571;SDS011;3827;49.928;8.548;2024-03-23T10:20:50;6.70;;;2.20;;
7571;SDS011;3827;49.928;8.548;2024-03-23T10:23:17;4.68;;;2.00;;
7571;SDS011;3827;49.928;8.548;2024-03-23T10:25:45;4.82;;;2.30;;
7571;SDS011;3827;49.928;8.548;2024-03-23T10:28:11;4.15;;;1.63;;
7571;SDS011;3827;49.928;8.548;2024-03-23T10:30:37;5.15;;;1.75;;
7571;SDS011;3827;49.928;8.548;2024-03-23T10:33:09;3.35;;;1.70;;
7571;SDS011;3827;49.928;8.548;2024-03-23T10:35:36;5.65;;;2.00;;
7571;SDS011;3827;49.928;8.548;2024-03-23T10:38:04;4.68;;;2.22;;
7571;SDS011;3827;49.928;8.548;2024-03-23T10:40:31;3.38;;;1.75;;
7571;SDS011;3827;49.928;8.548;2024-03-23T10:42:59;4.40;;;1.70;;
7571;SDS011;3827;49.928;8.548;2024-03-23T10:45:25;5.60;;;1.20;;
7571;SDS011;3827;49.928;8.548;2024-03-23T10:47:51;3.35;;;0.93;;
7571;SDS011;3827;49.928;8.548;2024-03-23T10:50:17;2.03;;;1.00;;
7571;SDS011;3827;49.928;8.548;2024-03-23T10:52:45;2.65;;;0.98;;
7571;SDS011;3827;49.928;8.548;2024-03-23T10:55:12;2.25;;;0.77;;
7571;SDS011;3827;49.928;8.548;2024-03-23T10:58:00;1.83;;;1.10;;
7571;SDS011;3827;49.928;8.548;2024-03-23T11:00:26;2.90;;;1.30;;
7571;SDS011;3827;49.928;8.548;2024-03-23T11:02:51;9.10;;;1.60;;
7571;SDS011;3827;49.928;8.548;2024-03-23T11:07:49;4.20;;;1.60;;
7571;SDS011;3827;49.928;8.548;2024-03-23T11:10:25;5.03;;;2.10;;
7571;SDS011;3827;49.928;8.548;2024-03-23T11:12:54;4.60;;;1.77;;
7571;SDS011;3827;49.928;8.548;2024-03-23T11:15:20;4.00;;;1.70;;
7571;SDS011;3827;49.928;8.548;2024-03-23T11:20:33;4.07;;;2.10;;
7571;SDS011;3827;49.928;8.548;2024-03-23T11:23:01;4.47;;;2.38;;
7571;SDS011;3827;49.928;8.548;2024-03-23T11:25:27;4.18;;;2.05;;
7571;SDS011;3827;49.928;8.548;2024-03-23T11:27:54;5.03;;;2.45;;
7571;SDS011;3827;49.928;8.548;2024-03-23T11:32:52;5.00;;;2.22;;
7571;SDS011;3827;49.928;8.548;2024-03-23T11:35:25;2.42;;;1.73;;
7571;SDS011;3827;49.928;8.548;2024-03-23T11:38:08;2.20;;;1.38;;
7571;SDS011;3827;49.928;8.548;2024-03-23T11:40:37;1.13;;;1.00;;
7571;SDS011;3827;49.928;8.548;2024-03-23T11:43:14;2.20;;;1.05;;
7571;SDS011;3827;49.928;8.548;2024-03-23T11:45:44;0.98;;;0.77;;
7571;SDS011;3827;49.928;8.548;2024-03-23T11:48:11;1.15;;;0.70;;
7571;SDS011;3827;49.928;8.548;2024-03-23T11:50:39;1.70;;;0.70;;
7571;SDS011;3827;49.928;8.548;2024-03-23T11:53:12;0.60;;;0.50;;
7571;SDS011;3827;49.928;8.548;2024-03-23T11:55:48;3.42;;;1.00;;
7571;SDS011;3827;49.928;8.548;2024-03-23T11:58:15;1.92;;;0.95;;
7571;SDS011;3827;49.928;8.548;2024-03-23T12:00:42;1.75;;;0.80;;
7571;SDS011;3827;49.928;8.548;2024-03-23T12:03:13;1.58;;;1.10;;
7571;SDS011;3827;49.928;8.548;2024-03-23T12:05:41;1.38;;;0.82;;
7571;SDS011;3827;49.928;8.548;2024-03-23T12:10:48;1.77;;;0.90;;
7571;SDS011;3827;49.928;8.548;2024-03-23T12:13:18;0.90;;;0.80;;
7571;SDS011;3827;49.928;8.548;2024-03-23T12:15:44;2.53;;;0.95;;
7571;SDS011;3827;49.928;8.548;2024-03-23T12:18:11;3.55;;;1.70;;
7571;SDS011;3827;49.928;8.548;2024-03-23T12:20:37;1.20;;;0.90;;
7571;SDS011;3827;49.928;8.548;2024-03-23T12:23:07;3.90;;;1.90;;
7571;SDS011;3827;49.928;8.548;2024-03-23T12:25:34;3.72;;;1.90;;
7571;SDS011;3827;49.928;8.548;2024-03-23T12:28:01;3.30;;;2.00;;
7571;SDS011;3827;49.928;8.548;2024-03-23T12:30:27;5.35;;;2.13;;
7571;SDS011;3827;49.928;8.548;2024-03-23T12:32:52;2.87;;;1.70;;
7571;SDS011;3827;49.928;8.548;2024-03-23T12:35:18;4.18;;;1.90;;
7571;SDS011;3827;49.928;8.548;2024-03-23T12:37:44;3.40;;;1.90;;
7571;SDS011;3827;49.928;8.548;2024-03-23T12:40:09;3.67;;;2.10;;
7571;SDS011;3827;49.928;8.548;2024-03-23T12:42:35;2.50;;;1.60;;
7571;SDS011;3827;49.928;8.548;2024-03-23T12:45:01;3.53;;;1.90;;
7571;SDS011;3827;49.928;8.548;2024-03-23T12:47:27;4.00;;;1.70;;
7571;SDS011;3827;49.928;8.548;2024-03-23T12:49:52;3.03;;;1.70;;
7571;SDS011;3827;49.928;8.548;2024-03-23T12:52:18;3.80;;;1.92;;
7571;SDS011;3827;49.928;8.548;2024-03-23T12:54:46;4.55;;;2.17;;
7571;SDS011;3827;49.928;8.548;2024-03-23T12:57:12;3.27;;;1.77;;
7571;SDS011;3827;49.928;8.548;2024-03-23T12:59:37;4.13;;;2.03;;
7571;SDS011;3827;49.928;8.548;2024-03-23T13:02:03;3.43;;;1.70;;
7571;SDS011;3827;49.928;8.548;2024-03-23T13:04:28;3.37;;;1.77;;
7571;SDS011;3827;49.928;8.548;2024-03-23T13:06:54;2.85;;;1.20;;
7571;SDS011;3827;49.928;8.548;2024-03-23T13:09:19;2.00;;;1.30;;
7571;SDS011;3827;49.928;8.548;2024-03-23T13:11:45;2.97;;;1.50;;
7571;SDS011;3827;49.928;8.548;2024-03-23T13:14:10;1.45;;;1.10;;
7571;SDS011;3827;49.928;8.548;2024-03-23T13:16:36;2.40;;;1.20;;
7571;SDS011;3827;49.928;8.548;2024-03-23T13:19:02;2.33;;;1.13;;
7571;SDS011;3827;49.928;8.548;2024-03-23T13:21:28;1.60;;;1.00;;
7571;SDS011;3827;49.928;8.548;2024-03-23T13:23:53;1.77;;;1.10;;
7571;SDS011;3827;49.928;8.548;2024-03-23T13:26:20;2.33;;;1.30;;
7571;SDS011;3827;49.928;8.548;2024-03-23T13:28:45;3.00;;;1.27;;
7571;SDS011;3827;49.928;8.548;2024-03-23T13:31:11;1.40;;;1.23;;
7571;SDS011;3827;49.928;8.548;2024-03-23T13:33:37;3.03;;;1.33;;
7571;SDS011;3827;49.928;8.548;2024-03-23T13:36:02;1.60;;;1.10;;
7571;SDS011;3827;49.928;8.548;2024-03-23T13:38:28;2.30;;;1.25;;
7571;SDS011;3827;49.928;8.548;2024-03-23T13:43:20;2.40;;;1.20;;
7571;SDS011;3827;49.928;8.548;2024-03-23T13:45:46;1.90;;;1.23;;
7571;SDS011;3827;49.928;8.548;2024-03-23T13:48:13;4.60;;;1.52;;
7571;SDS011;3827;49.928;8.548;2024-03-23T13:50:39;2.00;;;1.40;;
7571;SDS011;3827;49.928;8.548;2024-03-23T13:53:05;5.07;;;2.25;;
7571;SDS011;3827;49.928;8.548;2024-03-23T13:55:31;4.05;;;2.47;;
7571;SDS011;3827;49.928;8.548;2024-03-23T13:57:57;3.10;;;1.77;;
7571;SDS011;3827;49.928;8.548;2024-03-23T14:00:22;2.57;;;1.73;;
7571;SDS011;3827;49.928;8.548;2024-03-23T14:02:48;3.05;;;2.05;;
7571;SDS011;3827;49.928;8.548;2024-03-23T14:05:14;2.53;;;1.58;;
7571;SDS011;3827;49.928;8.548;2024-03-23T14:07:40;2.40;;;1.20;;
7571;SDS011;3827;49.928;8.548;2024-03-23T14:10:05;1.65;;;1.20;;
7571;SDS011;3827;49.928;8.548;2024-03-23T14:12:31;1.50;;;1.10;;
7571;SDS011;3827;49.928;8.548;2024-03-23T14:14:57;1.70;;;1.13;;
7571;SDS011;3827;49.928;8.548;2024-03-23T14:17:24;3.75;;;1.20;;
7571;SDS011;3827;49.928;8.548;2024-03-23T14:19:51;3.80;;;0.98;;
7571;SDS011;3827;49.928;8.548;2024-03-23T14:22:16;1.83;;;1.00;;
7571;SDS011;3827;49.928;8.548;2024-03-23T14:24:44;1.33;;;0.90;;
7571;SDS011;3827;49.928;8.548;2024-03-23T14:27:10;2.63;;;1.33;;
7571;SDS011;3827;49.928;8.548;2024-03-23T14:29:36;1.23;;;1.00;;
7571;SDS011;3827;49.928;8.548;2024-03-23T14:32:01;1.63;;;0.95;;
7571;SDS011;3827;49.928;8.548;2024-03-23T14:34:27;1.88;;;0.93;;
7571;SDS011;3827;49.928;8.548;2024-03-23T14:36:56;1.58;;;0.70;;
7571;SDS011;3827;49.928;8.548;2024-03-23T14:39:24;1.15;;;0.73;;
7571;SDS011;3827;49.928;8.548;2024-03-23T14:41:50;1.30;;;1.20;;
7571;SDS011;3827;49.928;8.548;2024-03-23T14:44:16;1.75;;;0.90;;
7571;SDS011;3827;49.928;8.548;2024-03-23T14:46:42;0.83;;;0.70;;
7571;SDS011;3827;49.928;8.548;2024-03-23T14:49:08;1.58;;;0.52;;
7571;SDS011;3827;49.928;8.548;2024-03-23T14:51:33;2.47;;;0.70;;
7571;SDS011;3827;49.928;8.548;2024-03-23T14:53:59;1.53;;;0.70;;
7571;SDS011;3827;49.928;8.548;2024-03-23T14:56:25;0.70;;;0.53;;
7571;SDS011;3827;49.928;8.548;2024-03-23T14:58:53;1.50;;;0.70;;
7571;SDS011;3827;49.928;8.548;2024-03-23T15:01:20;1.30;;;0.50;;
7571;SDS011;3827;49.928;8.548;2024-03-23T15:03:46;1.20;;;0.60;;
7571;SDS011;3827;49.928;8.548;2024-03-23T15:06:12;1.38;;;0.65;;
7571;SDS011;3827;49.928;8.548;2024-03-23T15:08:38;0.93;;;0.55;;
7571;SDS011;3827;49.928;8.548;2024-03-23T15:11:05;2.17;;;0.75;;
7571;SDS011;3827;49.928;8.548;2024-03-23T15:13:32;1.90;;;0.80;;
7571;SDS011;3827;49.928;8.548;2024-03-23T15:15:58;2.08;;;0.70;;
7571;SDS011;3827;49.928;8.548;2024-03-23T15:18:24;2.00;;;1.00;;
7571;SDS011;3827;49.928;8.548;2024-03-23T15:20:56;1.15;;;0.60;;
7571;SDS011;3827;49.928;8.548;2024-03-23T15:23:27;1.35;;;0.50;;
7571;SDS011;3827;49.928;8.548;2024-03-23T15:25:55;0.80;;;0.50;;
7571;SDS011;3827;49.928;8.548;2024-03-23T15:28:25;0.82;;;0.50;;
7571;SDS011;3827;49.928;8.548;2024-03-23T15:31:09;1.20;;;0.70;;
7571;SDS011;3827;49.928;8.548;2024-03-23T15:33:35;1.30;;;0.68;;
7571;SDS011;3827;49.928;8.548;2024-03-23T15:36:02;1.30;;;0.50;;
7571;SDS011;3827;49.928;8.548;2024-03-23T15:38:28;1.42;;;0.60;;
7571;SDS011;3827;49.928;8.548;2024-03-23T15:40:57;1.17;;;0.52;;
7571;SDS011;3827;49.928;8.548;2024-03-23T15:43:23;2.30;;;0.63;;
7571;SDS011;3827;49.928;8.548;2024-03-23T15:48:27;1.30;;;0.40;;
7571;SDS011;3827;49.928;8.548;2024-03-23T15:50:53;1.77;;;0.63;;
7571;SDS011;3827;49.928;8.548;2024-03-23T15:53:22;0.98;;;0.60;;
7571;SDS011;3827;49.928;8.548;2024-03-23T15:55:55;0.95;;;0.50;;
7571;SDS011;3827;49.928;8.548;2024-03-23T15:58:21;1.27;;;0.77;;
7571;SDS011;3827;49.928;8.548;2024-03-23T16:00:54;0.80;;;0.50;;
7571;SDS011;3827;49.928;8.548;2024-03-23T16:03:24;1.42;;;0.60;;
7571;SDS011;3827;49.928;8.548;2024-03-23T16:05:52;1.52;;;0.55;;
7571;SDS011;3827;49.928;8.548;2024-03-23T16:08:22;1.73;;;0.90;;
7571;SDS011;3827;49.928;8.548;2024-03-23T16:10:48;0.90;;;0.73;;
7571;SDS011;3827;49.928;8.548;2024-03-23T16:13:14;1.33;;;0.60;;
7571;SDS011;3827;49.928;8.548;2024-03-23T16:15:39;1.48;;;0.80;;
7571;SDS011;3827;49.928;8.548;2024-03-23T16:18:05;1.58;;;1.20;;
7571;SDS011;3827;49.928;8.548;2024-03-23T16:20:31;2.40;;;1.73;;